createdAt,value
2023-01-22T00:00:14.831Z,13.65
2023-01-22T00:03:18.406Z,13.60
2023-01-22T00:06:20.646Z,13.98
2023-01-22T00:09:24.438Z,12.80
2023-01-22T00:12:26.395Z,12.48
2023-01-22T00:15:29.925Z,12.10
2023-01-22T00:18:31.489Z,13.55
2023-01-22T00:21:35.256Z,13.57
2023-01-22T00:24:37.044Z,14.00
2023-01-22T00:27:41.280Z,13.18
2023-01-22T00:30:42.877Z,12.63
2023-01-22T00:33:46.984Z,12.25
2023-01-22T00:36:48.431Z,13.90
2023-01-22T00:39:52.392Z,14.27
2023-01-22T00:42:55.745Z,13.15
2023-01-22T00:45:59.983Z,14.52
2023-01-22T00:49:03.033Z,14.57
2023-01-22T00:52:06.494Z,13.75
2023-01-22T00:55:08.370Z,13.73
2023-01-22T00:58:11.893Z,13.57
2023-01-22T01:01:14.919Z,14.00
2023-01-22T01:04:18.481Z,13.68
2023-01-22T01:07:19.929Z,13.25
2023-01-22T01:10:23.475Z,13.70
2023-01-22T01:13:26.134Z,13.10
2023-01-22T01:16:31.403Z,13.27
2023-01-22T01:19:32.977Z,13.57
2023-01-22T01:22:36.473Z,13.48
2023-01-22T01:25:41.882Z,13.55
2023-01-22T01:28:45.595Z,13.77
2023-01-22T01:31:51.020Z,11.90
2023-01-22T01:34:54.806Z,13.35
2023-01-22T01:37:56.362Z,12.52
2023-01-22T01:41:00.094Z,13.30
2023-01-22T01:44:20.458Z,12.80
2023-01-22T01:47:33.801Z,11.23
2023-01-22T01:50:37.224Z,10.93
2023-01-22T01:53:45.058Z,12.18
2023-01-22T01:56:50.441Z,11.07
2023-01-22T01:59:55.692Z,10.27
2023-01-22T02:02:58.241Z,10.82
2023-01-22T02:06:01.826Z,11.75
2023-01-22T02:09:03.650Z,11.38
2023-01-22T02:12:08.227Z,10.40
2023-01-22T02:15:10.148Z,9.70
2023-01-22T02:18:13.704Z,11.15
2023-01-22T02:21:37.949Z,9.02
2023-01-22T02:24:41.462Z,9.52
2023-01-22T02:27:43.540Z,9.32
2023-01-22T02:30:47.161Z,9.45
2023-01-22T02:33:50.220Z,8.77
2023-01-22T02:36:53.908Z,9.05
2023-01-22T02:39:55.676Z,7.60
2023-01-22T02:43:00.313Z,7.85
2023-01-22T02:46:01.963Z,7.68
2023-01-22T02:49:06.105Z,7.53
2023-01-22T02:52:09.811Z,8.10
2023-01-22T02:55:13.561Z,8.05
2023-01-22T02:58:16.645Z,7.78
2023-01-22T03:01:23.923Z,8.50
2023-01-22T03:04:28.238Z,7.75
2023-01-22T03:07:42.306Z,7.60
2023-01-22T03:10:44.671Z,8.40
2023-01-22T03:14:06.773Z,7.30
2023-01-22T03:17:27.319Z,6.97
2023-01-22T03:20:49.630Z,8.68
2023-01-22T03:23:54.957Z,8.52
2023-01-22T03:26:58.536Z,9.15
2023-01-22T03:30:01.651Z,9.88
2023-01-22T03:33:09.801Z,8.95
2023-01-22T03:36:14.532Z,9.63
2023-01-22T03:39:23.163Z,9.93
2023-01-22T03:42:25.167Z,9.70
2023-01-22T03:45:28.733Z,7.45
2023-01-22T03:48:30.519Z,8.88
2023-01-22T03:54:37.967Z,8.27
2023-01-22T03:57:41.837Z,8.50
2023-01-22T04:00:43.397Z,7.93
2023-01-22T04:03:47.629Z,7.30
2023-01-22T04:06:50.596Z,6.63
2023-01-22T04:09:54.117Z,7.38
2023-01-22T04:12:55.721Z,8.00
2023-01-22T04:16:00.403Z,8.95
2023-01-22T04:19:24.862Z,7.78
2023-01-22T04:22:51.817Z,7.85
2023-01-22T04:25:53.619Z,7.72
2023-01-22T04:28:57.247Z,7.30
2023-01-22T04:31:59.777Z,7.63
2023-01-22T04:35:21.822Z,7.95
2023-01-22T04:38:27.408Z,7.65
2023-01-22T04:41:30.910Z,6.80
2023-01-22T04:44:35.155Z,6.93
2023-01-22T04:47:43.662Z,6.78
2023-01-22T04:50:46.419Z,6.47
2023-01-22T04:53:50.309Z,6.30
2023-01-22T04:56:52.285Z,7.03
2023-01-22T04:59:55.764Z,6.20
2023-01-22T05:02:59.800Z,5.78
2023-01-22T05:06:05.356Z,6.55
2023-01-22T05:09:09.610Z,5.35
2023-01-22T05:12:27.863Z,5.53
2023-01-22T05:15:29.501Z,5.05
2023-01-22T05:18:36.635Z,5.18
2023-01-22T05:21:38.152Z,5.05
2023-01-22T05:24:42.864Z,4.70
2023-01-22T05:27:44.421Z,4.90
2023-01-22T05:30:53.144Z,4.88
2023-01-22T05:34:08.089Z,5.00
2023-01-22T05:40:14.529Z,5.75
2023-01-22T05:43:19.639Z,5.05
2023-01-22T05:46:27.685Z,5.55
2023-01-22T05:49:57.586Z,4.90
2023-01-22T05:52:59.708Z,5.07
2023-01-22T05:59:10.638Z,5.28
2023-01-22T06:02:14.321Z,5.20
2023-01-22T06:05:18.512Z,4.65
2023-01-22T06:08:28.141Z,4.18
2023-01-22T06:11:29.762Z,4.38
2023-01-22T06:17:36.124Z,4.43
2023-01-22T06:23:43.016Z,5.07
2023-01-22T06:29:49.512Z,4.45
2023-01-22T06:32:53.777Z,5.80
2023-01-22T06:35:56.409Z,4.68
2023-01-22T06:39:00.512Z,4.93
2023-01-22T06:42:12.213Z,4.55
2023-01-22T06:45:16.950Z,5.03
2023-01-22T06:48:23.749Z,4.88
2023-01-22T06:51:29.073Z,4.57
2023-01-22T06:54:31.669Z,4.88
2023-01-22T06:57:35.982Z,5.22
2023-01-22T07:00:37.595Z,4.85
2023-01-22T07:03:41.847Z,4.90
2023-01-22T07:06:43.538Z,5.15
2023-01-22T07:12:54.338Z,4.72
2023-01-22T07:16:02.354Z,5.20
2023-01-22T07:19:03.983Z,5.63
2023-01-22T07:25:09.216Z,5.35
2023-01-22T07:28:14.465Z,5.32
2023-01-22T07:31:16.099Z,5.53
2023-01-22T07:34:19.909Z,5.00
2023-01-22T07:37:21.409Z,5.38
2023-01-22T07:40:26.024Z,5.80
2023-01-22T07:43:27.718Z,5.72
2023-01-22T07:49:32.711Z,5.50
2023-01-22T07:52:36.213Z,5.82
2023-01-22T07:55:38.065Z,5.07
2023-01-22T07:58:41.712Z,5.07
2023-01-22T08:01:43.330Z,4.85
2023-01-22T08:07:48.387Z,5.47
2023-01-22T08:10:51.871Z,5.50
2023-01-22T08:13:54.375Z,5.10
2023-01-22T08:16:57.901Z,6.80
2023-01-22T08:19:59.418Z,6.10
2023-01-22T08:23:02.925Z,5.57
2023-01-22T08:26:04.642Z,5.43
2023-01-22T08:29:08.161Z,4.97
2023-01-22T08:32:09.741Z,4.93
2023-01-22T08:38:14.986Z,5.10
2023-01-22T08:44:19.854Z,5.18
2023-01-22T08:47:23.876Z,5.55
2023-01-22T08:50:26.629Z,5.60
2023-01-22T08:53:30.273Z,5.53
2023-01-22T08:56:31.716Z,6.03
2023-01-22T08:59:35.257Z,6.53
2023-01-22T09:02:37.063Z,6.22
2023-01-22T09:05:40.638Z,5.60
2023-01-22T09:08:42.237Z,5.47
2023-01-22T09:14:47.800Z,5.72
2023-01-22T09:17:51.461Z,5.70
2023-01-22T09:20:52.925Z,5.72
2023-01-22T09:23:56.467Z,5.90
2023-01-22T09:26:58.061Z,5.90
2023-01-22T09:30:01.663Z,6.40
2023-01-22T09:33:03.227Z,6.35
2023-01-22T09:36:14.723Z,6.57
2023-01-22T09:39:16.327Z,6.10
2023-01-22T09:42:39.839Z,6.13
2023-01-22T09:45:42.110Z,5.97
2023-01-22T09:48:50.521Z,6.55
2023-01-22T09:51:58.787Z,6.25
2023-01-22T09:55:02.538Z,6.30
2023-01-22T09:58:12.230Z,6.00
2023-01-22T10:01:16.762Z,6.45
2023-01-22T10:04:39.648Z,6.80
2023-01-22T10:07:49.535Z,6.70
2023-01-22T10:10:51.796Z,6.15
2023-01-22T10:13:59.120Z,6.80
2023-01-22T10:17:03.015Z,6.43
2023-01-22T10:20:10.194Z,6.30
2023-01-22T10:23:22.933Z,7.03
2023-01-22T10:26:40.525Z,7.05
2023-01-22T10:29:45.813Z,8.20
2023-01-22T10:33:04.305Z,6.57
2023-01-22T10:36:06.880Z,7.28
2023-01-22T10:39:12.728Z,6.90
2023-01-22T10:42:24.988Z,6.32
2023-01-22T10:45:28.541Z,7.03
2023-01-22T10:48:30.338Z,6.65
2023-01-22T10:54:46.386Z,6.88
2023-01-22T10:57:57.684Z,7.65
2023-01-22T11:01:06.150Z,7.10
2023-01-22T11:04:19.532Z,7.00
2023-01-22T11:07:26.823Z,7.28
2023-01-22T11:10:57.422Z,7.18
2023-01-22T11:14:02.711Z,6.75
2023-01-22T11:17:20.352Z,7.35
2023-01-22T11:20:52.645Z,8.15
2023-01-22T11:24:08.552Z,9.00
2023-01-22T11:27:37.172Z,7.88
2023-01-22T11:31:02.952Z,7.70
2023-01-22T11:34:30.834Z,8.30
2023-01-22T11:38:09.941Z,8.45
2023-01-22T11:41:29.350Z,8.50
2023-01-22T11:45:04.475Z,9.15
2023-01-22T11:48:18.143Z,8.45
2023-01-22T11:51:43.278Z,7.78
2023-01-22T11:55:12.590Z,7.72
2023-01-22T11:58:51.193Z,7.80
2023-01-22T12:02:30.353Z,8.05
2023-01-22T12:05:58.722Z,8.65
2023-01-22T12:09:07.026Z,8.40
2023-01-22T12:12:28.083Z,10.38
2023-01-22T12:15:46.897Z,8.10
2023-01-22T12:18:50.376Z,7.13
2023-01-22T12:22:22.365Z,7.80
2023-01-22T12:25:47.876Z,8.48
2023-01-22T12:29:19.972Z,7.27
2023-01-22T12:32:25.947Z,7.70
2023-01-22T12:35:30.798Z,7.28
2023-01-22T12:38:48.629Z,6.80
2023-01-22T12:42:12.169Z,7.57
2023-01-22T12:45:37.370Z,7.68
2023-01-22T12:49:05.476Z,7.35
2023-01-22T12:52:28.286Z,7.80
2023-01-22T12:55:30.000Z,7.72
2023-01-22T13:01:37.166Z,7.87
2023-01-22T13:07:42.196Z,7.45
2023-01-22T13:14:18.180Z,7.28
2023-01-22T13:17:31.136Z,7.50
2023-01-22T13:20:45.842Z,7.70
2023-01-22T13:23:49.891Z,7.70
2023-01-22T13:26:53.691Z,7.55
2023-01-22T13:30:19.264Z,7.65
2023-01-22T13:33:20.859Z,6.30
2023-01-22T13:36:25.497Z,7.88
2023-01-22T13:39:32.245Z,8.07
2023-01-22T13:42:35.777Z,7.50
2023-01-22T13:45:39.634Z,7.78
2023-01-22T13:48:43.367Z,7.93
2023-01-22T13:51:46.238Z,7.30
2023-01-22T13:55:11.381Z,7.80
2023-01-22T13:58:46.541Z,7.82
2023-01-22T14:01:51.427Z,7.47
2023-01-22T14:04:53.179Z,7.68
2023-01-22T14:08:24.183Z,7.93
2023-01-22T14:11:37.150Z,7.75
2023-01-22T14:14:41.380Z,8.13
2023-01-22T14:17:43.372Z,8.10
2023-01-22T14:20:47.320Z,7.32
2023-01-22T14:23:48.799Z,7.65
2023-01-22T14:26:52.276Z,7.30
2023-01-22T14:29:54.598Z,7.60
2023-01-22T14:32:58.589Z,7.40
2023-01-22T14:36:00.552Z,7.93
2023-01-22T14:39:06.513Z,7.95
2023-01-22T14:42:08.630Z,6.78
2023-01-22T14:48:16.348Z,9.68
2023-01-22T14:51:19.919Z,6.82
2023-01-22T14:54:21.437Z,7.22
2023-01-22T14:57:25.405Z,7.60
2023-01-22T15:00:28.079Z,6.85
2023-01-22T15:03:32.097Z,8.02
2023-01-22T15:06:33.665Z,6.70
2023-01-22T15:09:37.797Z,6.63
2023-01-22T15:12:39.286Z,7.05
2023-01-22T15:15:42.734Z,6.68
2023-01-22T15:18:45.015Z,7.25
2023-01-22T15:21:48.642Z,7.85
2023-01-22T15:24:50.229Z,7.75
2023-01-22T15:27:53.746Z,6.70
2023-01-22T15:30:58.215Z,7.70
2023-01-22T15:34:03.418Z,7.68
2023-01-22T15:37:04.995Z,7.07
2023-01-22T15:40:09.617Z,7.43
2023-01-22T15:43:11.093Z,7.82
2023-01-22T15:46:14.611Z,8.02
2023-01-22T15:49:17.503Z,8.48
2023-01-22T15:52:21.077Z,7.70
2023-01-22T15:55:22.974Z,7.40
2023-01-22T15:58:26.435Z,7.53
2023-01-22T16:01:28.030Z,7.80
2023-01-22T16:04:31.545Z,8.77
2023-01-22T16:07:33.062Z,8.35
2023-01-22T16:10:36.523Z,8.82
2023-01-22T16:13:38.111Z,8.85
2023-01-22T16:16:41.663Z,8.93
2023-01-22T16:19:43.396Z,9.02
2023-01-22T16:25:48.384Z,8.25
2023-01-22T16:28:53.843Z,8.27
2023-01-22T16:31:55.956Z,8.38
2023-01-22T16:35:00.233Z,10.45
2023-01-22T16:38:01.742Z,8.40
2023-01-22T16:41:24.250Z,9.32
2023-01-22T16:44:26.933Z,9.05
2023-01-22T16:47:30.476Z,9.05
2023-01-22T16:50:31.966Z,7.28
2023-01-22T16:53:35.453Z,7.95
2023-01-22T16:56:37.120Z,9.18
2023-01-22T17:02:42.138Z,7.80
2023-01-22T17:05:48.383Z,9.25
2023-01-22T17:08:51.281Z,8.00
2023-01-22T17:12:00.639Z,8.63
2023-01-22T17:15:02.196Z,8.77
2023-01-22T17:18:05.819Z,7.85
2023-01-22T17:21:09.844Z,8.60
2023-01-22T17:24:13.782Z,8.07
2023-01-22T17:27:17.862Z,8.13
2023-01-22T17:30:21.606Z,8.52
2023-01-22T17:33:23.842Z,8.35
2023-01-22T17:36:27.813Z,8.73
2023-01-22T17:39:29.327Z,9.95
2023-01-22T17:42:33.072Z,10.10
2023-01-22T17:45:39.222Z,9.20
2023-01-22T17:48:44.205Z,9.18
2023-01-22T17:51:45.959Z,9.10
2023-01-22T17:54:52.343Z,8.45
2023-01-22T17:57:55.192Z,8.73
2023-01-22T18:01:06.452Z,8.35
2023-01-22T18:04:09.947Z,9.95
2023-01-22T18:07:13.452Z,8.68
2023-01-22T18:10:15.190Z,8.15
2023-01-22T18:16:20.173Z,9.55
2023-01-22T18:19:24.060Z,9.30
2023-01-22T18:22:25.626Z,10.35
2023-01-22T18:25:29.138Z,9.77
2023-01-22T18:28:31.450Z,9.00
2023-01-22T18:31:35.631Z,8.45
2023-01-22T18:34:37.163Z,9.52
2023-01-22T18:37:40.632Z,9.32
2023-01-22T18:40:42.200Z,9.35
2023-01-22T18:43:53.344Z,8.93
2023-01-22T18:46:58.068Z,8.55
2023-01-22T18:50:01.591Z,9.02
2023-01-22T18:53:04.166Z,9.18
2023-01-22T18:56:09.702Z,10.38
2023-01-22T18:59:12.407Z,11.43
2023-01-22T19:02:20.487Z,11.10
2023-01-22T19:05:23.605Z,10.80
2023-01-22T19:08:27.117Z,9.90
2023-01-22T19:11:34.401Z,8.52
2023-01-22T19:14:37.900Z,8.18
2023-01-22T19:17:39.513Z,8.05
2023-01-22T19:20:43.113Z,9.55
2023-01-22T19:23:53.209Z,8.45
2023-01-22T19:26:57.372Z,8.10
2023-01-22T19:29:59.975Z,9.00
2023-01-22T19:33:03.555Z,10.05
2023-01-22T19:36:05.570Z,8.85
2023-01-22T19:39:12.240Z,9.00
2023-01-22T19:42:14.805Z,8.63
2023-01-22T19:45:18.564Z,9.15
2023-01-22T19:48:20.867Z,8.60
2023-01-22T19:51:26.282Z,9.50
2023-01-22T19:54:27.933Z,10.10
2023-01-22T19:57:32.641Z,9.98
2023-01-22T20:00:34.150Z,8.52
2023-01-22T20:03:37.763Z,9.73
2023-01-22T20:06:39.778Z,8.63
2023-01-22T20:09:44.206Z,7.78
2023-01-22T20:12:49.471Z,8.00
2023-01-22T20:15:53.554Z,9.68
2023-01-22T20:18:56.807Z,10.20
2023-01-22T20:22:03.723Z,13.52
2023-01-22T20:25:07.472Z,15.15
2023-01-22T20:28:12.861Z,14.90
2023-01-22T20:31:21.568Z,16.85
2023-01-22T20:34:25.642Z,13.43
2023-01-22T20:37:27.210Z,15.90
2023-01-22T20:40:30.706Z,15.70
2023-01-22T20:43:32.405Z,9.18
2023-01-22T20:46:39.436Z,8.48
2023-01-22T20:49:40.873Z,9.50
2023-01-22T20:52:44.419Z,9.40
2023-01-22T20:55:46.163Z,7.63
2023-01-22T21:01:58.468Z,8.93
2023-01-22T21:05:02.081Z,7.95
2023-01-22T21:08:03.766Z,8.52
2023-01-22T21:11:10.588Z,9.05
2023-01-22T21:14:15.934Z,8.57
2023-01-22T21:17:20.453Z,8.35
2023-01-22T21:20:21.994Z,8.65
2023-01-22T21:23:25.451Z,8.55
2023-01-22T21:26:29.314Z,8.63
2023-01-22T21:29:32.759Z,8.75
2023-01-22T21:32:34.255Z,8.77
2023-01-22T21:35:37.773Z,8.27
2023-01-22T21:38:39.389Z,8.45
2023-01-22T21:41:43.336Z,7.78
2023-01-22T21:45:03.379Z,7.85
2023-01-22T21:48:07.774Z,7.72
2023-01-22T21:51:09.327Z,7.65
2023-01-22T21:54:19.575Z,7.85
2023-01-22T21:57:21.086Z,8.52
2023-01-22T22:00:24.598Z,9.07
2023-01-22T22:03:26.331Z,7.47
2023-01-22T22:06:30.997Z,8.43
2023-01-22T22:09:32.593Z,9.15
2023-01-22T22:12:36.073Z,8.75
2023-01-22T22:15:38.325Z,8.52
2023-01-22T22:18:41.803Z,8.98
2023-01-22T22:21:43.945Z,8.90
2023-01-22T22:24:47.592Z,8.95
2023-01-22T22:27:49.145Z,10.27
2023-01-22T22:30:52.933Z,8.85
2023-01-22T22:33:55.982Z,9.60
2023-01-22T22:36:59.449Z,8.70
2023-01-22T22:40:00.952Z,8.80
2023-01-22T22:43:04.447Z,8.73
2023-01-22T22:46:16.529Z,9.00
2023-01-22T22:49:20.091Z,9.57
2023-01-22T22:52:21.646Z,8.70
2023-01-22T22:55:27.979Z,9.77
2023-01-22T22:58:29.468Z,10.35
2023-01-22T23:01:33.127Z,10.05
2023-01-22T23:04:35.219Z,8.57
2023-01-22T23:07:38.704Z,9.45
2023-01-22T23:10:40.155Z,8.82
2023-01-22T23:13:45.309Z,8.75
2023-01-22T23:16:49.162Z,9.10
2023-01-22T23:19:52.681Z,9.55
2023-01-22T23:22:58.121Z,8.52
2023-01-22T23:26:04.900Z,7.93
2023-01-22T23:29:09.355Z,9.35
2023-01-22T23:32:12.858Z,8.18
2023-01-22T23:35:14.399Z,9.13
2023-01-22T23:38:21.169Z,8.63
2023-01-22T23:41:23.064Z,8.93
2023-01-22T23:44:27.016Z,8.15
2023-01-22T23:47:30.357Z,8.90
2023-01-22T23:50:33.875Z,8.75
2023-01-22T23:53:37.412Z,8.10
2023-01-22T23:56:40.885Z,8.63
2023-01-22T23:59:42.473Z,8.27
